Pagina principale
METAR-TAF:

METAR-TAF

Aeroporti :

Aeroporto di Gioia del Colle

Gioia del Colle, Italia

latitudine: 40-46N, longitudine: 016-56E, altezza: 345 m

Osservazione

Il bollettino è stato emesso 7 ore e 2 minuti fa, alle 04:55 UTC
Vento 5 kt da nord/nord-ovest
Temperature 22°C
Umidità 88%
Pressione 1014 hPa
Visibilità: 8000 m

METAR: LIBV 210455Z 34005KT 8000 NSC 22/20 Q1014 RMK SCT SCT090 VIS MIN 8000 WIND THR32 /////KT WIND THR14 34007KT BLU

Ora: 13:57 (11:57 UTC)

Previsione

Il bollettino è stato emesso 6 ore e 57 minuti fa, alle 05:00 UTC
Previsione valida dal 21 alle 06 UTC al 21 alle 15 UTC
Vento 8 kt da nord
Visibilità 10 km o più
Nubi sparse ad un'altezza di 3000 ft
Temporaneamente
dal 21 alle 10 UTC al 21 alle 15 UTC
Visibilità: 4000 m
Poco nuvoloso ad un'altezza di 2000 ft, Cumulonembo.
Nuvoloso ad un'altezza di 2500 ft
temporale, pioggia

TAF: LIBV 210500Z 2106/2115 36008KT 9999 SCT030 TEMPO 2110/2115 4000 TSRA FEW020CB BKN025

Osservazioni e previsioni meteorologiche di più di 4000 aeroporti (messaggi METAR e TAF).

Le stazioni disponibili sono rappresentate dai dischi gialli e rossi sulla carta.

Puntare il mouse per vedere il nome della stazione.

Clicca sopra per visualizzare le osservazioni e previsioni meteorologiche.

Per cambiare la mappa : fare clic sui pulsanti verdi con una croce nera per ingrandire, il pulsante verde con un trattino per diminuire, o sulla freccia verde per le mappe adiacenti.


METAR-TAF: